Desha, Arkansas
Current Conditions -  °F | °C
As of 5:55 PM on Saturday 22 Nov 2014 (Local Time) from KBVX Reporting Station
Broken Clouds Broken Clouds  
Wind Chill: 54°   Ceiling: 9000
Heat Index: 54°   Visibility: 10mi
Dew Point: 48°   Wind: 3mph
Humidity: 82%   Direction: 100°E
Pressure: 30.02"   Gusts: NA
Location:  35.74°N, 91.68°W
Report Text: KBVX 222355Z AUTO 10003KT 10SM BKN090 12/09 A3002 RMK AO1 10160 20120 401600040 54000
Loading
Personal Weather Stations






























Interactive Weather Map New forecast layout! Learn more

10-Day Weather Forecast

Advertisements
Track Severe Weather on mobile